sensor_id;sensor_type;location;lat;lon;timestamp;P1;durP1;ratioP1;P2;durP2;ratioP2
11616;SDS011;5864;52.998;9.068;2023-06-24T00:02:14;8.50;;;7.17;;
11616;SDS011;5864;52.998;9.068;2023-06-24T00:04:59;9.37;;;7.50;;
11616;SDS011;5864;52.998;9.068;2023-06-24T00:07:46;10.13;;;7.73;;
11616;SDS011;5864;52.998;9.068;2023-06-24T00:10:32;10.50;;;8.07;;
11616;SDS011;5864;52.998;9.068;2023-06-24T00:13:18;8.07;;;6.97;;
11616;SDS011;5864;52.998;9.068;2023-06-24T00:16:03;7.07;;;6.30;;
11616;SDS011;5864;52.998;9.068;2023-06-24T00:18:51;7.10;;;6.30;;
11616;SDS011;5864;52.998;9.068;2023-06-24T00:21:39;8.23;;;6.93;;
11616;SDS011;5864;52.998;9.068;2023-06-24T00:24:24;8.37;;;6.90;;
11616;SDS011;5864;52.998;9.068;2023-06-24T00:27:10;7.87;;;7.07;;
11616;SDS011;5864;52.998;9.068;2023-06-24T00:29:55;8.67;;;6.80;;
11616;SDS011;5864;52.998;9.068;2023-06-24T00:32:41;8.30;;;7.50;;
11616;SDS011;5864;52.998;9.068;2023-06-24T00:35:27;7.80;;;6.90;;
11616;SDS011;5864;52.998;9.068;2023-06-24T00:38:13;9.73;;;6.90;;
11616;SDS011;5864;52.998;9.068;2023-06-24T00:40:58;11.43;;;7.60;;
11616;SDS011;5864;52.998;9.068;2023-06-24T00:43:44;9.67;;;7.43;;
11616;SDS011;5864;52.998;9.068;2023-06-24T00:46:29;9.03;;;6.97;;
11616;SDS011;5864;52.998;9.068;2023-06-24T00:49:17;8.43;;;6.47;;
11616;SDS011;5864;52.998;9.068;2023-06-24T00:52:05;7.40;;;6.63;;
11616;SDS011;5864;52.998;9.068;2023-06-24T00:54:53;7.57;;;6.87;;
11616;SDS011;5864;52.998;9.068;2023-06-24T00:57:40;8.13;;;6.53;;
11616;SDS011;5864;52.998;9.068;2023-06-24T01:00:27;8.17;;;7.10;;
11616;SDS011;5864;52.998;9.068;2023-06-24T01:03:14;7.97;;;7.13;;
11616;SDS011;5864;52.998;9.068;2023-06-24T01:06:00;12.47;;;7.20;;
11616;SDS011;5864;52.998;9.068;2023-06-24T01:08:47;11.63;;;8.13;;
11616;SDS011;5864;52.998;9.068;2023-06-24T01:11:34;8.20;;;7.30;;
11616;SDS011;5864;52.998;9.068;2023-06-24T01:14:20;8.63;;;7.87;;
11616;SDS011;5864;52.998;9.068;2023-06-24T01:17:08;8.83;;;7.57;;
11616;SDS011;5864;52.998;9.068;2023-06-24T01:20:01;8.20;;;7.20;;
11616;SDS011;5864;52.998;9.068;2023-06-24T01:26:18;7.53;;;6.83;;
11616;SDS011;5864;52.998;9.068;2023-06-24T01:29:18;9.37;;;8.37;;
11616;SDS011;5864;52.998;9.068;2023-06-24T01:32:23;9.60;;;7.70;;
11616;SDS011;5864;52.998;9.068;2023-06-24T01:35:19;8.17;;;7.30;;
11616;SDS011;5864;52.998;9.068;2023-06-24T01:38:10;10.67;;;8.30;;
11616;SDS011;5864;52.998;9.068;2023-06-24T01:41:00;8.53;;;7.40;;
11616;SDS011;5864;52.998;9.068;2023-06-24T01:43:49;9.07;;;8.13;;
11616;SDS011;5864;52.998;9.068;2023-06-24T01:46:37;10.17;;;7.70;;
11616;SDS011;5864;52.998;9.068;2023-06-24T01:49:25;8.60;;;7.73;;
11616;SDS011;5864;52.998;9.068;2023-06-24T01:52:14;8.30;;;6.83;;
11616;SDS011;5864;52.998;9.068;2023-06-24T01:54:59;9.07;;;7.93;;
11616;SDS011;5864;52.998;9.068;2023-06-24T01:57:46;10.00;;;8.30;;
11616;SDS011;5864;52.998;9.068;2023-06-24T02:00:34;8.60;;;7.70;;
11616;SDS011;5864;52.998;9.068;2023-06-24T02:03:22;8.73;;;7.83;;
11616;SDS011;5864;52.998;9.068;2023-06-24T02:06:09;9.73;;;8.13;;
11616;SDS011;5864;52.998;9.068;2023-06-24T02:08:57;10.00;;;7.83;;
11616;SDS011;5864;52.998;9.068;2023-06-24T02:11:43;8.60;;;7.60;;
11616;SDS011;5864;52.998;9.068;2023-06-24T02:14:29;10.63;;;8.23;;
11616;SDS011;5864;52.998;9.068;2023-06-24T02:17:17;9.57;;;7.93;;
11616;SDS011;5864;52.998;9.068;2023-06-24T02:20:04;9.20;;;8.23;;
11616;SDS011;5864;52.998;9.068;2023-06-24T02:22:53;10.00;;;7.67;;
11616;SDS011;5864;52.998;9.068;2023-06-24T02:25:40;10.27;;;9.27;;
11616;SDS011;5864;52.998;9.068;2023-06-24T02:28:28;8.90;;;7.10;;
11616;SDS011;5864;52.998;9.068;2023-06-24T02:31:15;9.67;;;7.53;;
11616;SDS011;5864;52.998;9.068;2023-06-24T02:34:01;9.27;;;7.57;;
11616;SDS011;5864;52.998;9.068;2023-06-24T02:36:46;9.03;;;8.13;;
11616;SDS011;5864;52.998;9.068;2023-06-24T02:39:33;8.77;;;7.87;;
11616;SDS011;5864;52.998;9.068;2023-06-24T02:42:18;9.37;;;7.77;;
11616;SDS011;5864;52.998;9.068;2023-06-24T02:45:04;8.80;;;7.90;;
11616;SDS011;5864;52.998;9.068;2023-06-24T02:47:52;9.50;;;7.97;;
11616;SDS011;5864;52.998;9.068;2023-06-24T02:50:38;9.57;;;7.53;;
11616;SDS011;5864;52.998;9.068;2023-06-24T02:53:28;9.47;;;8.43;;
11616;SDS011;5864;52.998;9.068;2023-06-24T02:56:15;10.13;;;8.40;;
11616;SDS011;5864;52.998;9.068;2023-06-24T02:59:04;10.50;;;8.33;;
11616;SDS011;5864;52.998;9.068;2023-06-24T03:01:50;9.47;;;8.13;;
11616;SDS011;5864;52.998;9.068;2023-06-24T03:04:37;9.63;;;8.03;;
11616;SDS011;5864;52.998;9.068;2023-06-24T03:07:23;9.40;;;8.20;;
11616;SDS011;5864;52.998;9.068;2023-06-24T03:10:10;10.03;;;8.67;;
11616;SDS011;5864;52.998;9.068;2023-06-24T03:12:57;9.20;;;7.93;;
11616;SDS011;5864;52.998;9.068;2023-06-24T03:15:42;10.17;;;8.40;;
11616;SDS011;5864;52.998;9.068;2023-06-24T03:18:28;9.70;;;8.70;;
11616;SDS011;5864;52.998;9.068;2023-06-24T03:21:14;9.70;;;8.00;;
11616;SDS011;5864;52.998;9.068;2023-06-24T03:23:59;9.80;;;8.80;;
11616;SDS011;5864;52.998;9.068;2023-06-24T03:26:45;9.97;;;8.97;;
11616;SDS011;5864;52.998;9.068;2023-06-24T03:29:32;9.27;;;8.33;;
11616;SDS011;5864;52.998;9.068;2023-06-24T03:32:18;8.57;;;7.60;;
11616;SDS011;5864;52.998;9.068;2023-06-24T03:35:04;9.63;;;8.50;;
11616;SDS011;5864;52.998;9.068;2023-06-24T03:37:51;10.90;;;8.97;;
11616;SDS011;5864;52.998;9.068;2023-06-24T03:40:36;10.80;;;8.97;;
11616;SDS011;5864;52.998;9.068;2023-06-24T03:43:22;11.80;;;9.70;;
11616;SDS011;5864;52.998;9.068;2023-06-24T03:46:09;12.87;;;10.23;;
11616;SDS011;5864;52.998;9.068;2023-06-24T03:48:55;9.37;;;8.47;;
11616;SDS011;5864;52.998;9.068;2023-06-24T03:51:40;10.20;;;8.93;;
11616;SDS011;5864;52.998;9.068;2023-06-24T03:54:27;9.77;;;8.63;;
11616;SDS011;5864;52.998;9.068;2023-06-24T03:57:12;11.17;;;9.53;;
11616;SDS011;5864;52.998;9.068;2023-06-24T03:59:58;12.23;;;9.67;;
11616;SDS011;5864;52.998;9.068;2023-06-24T04:02:45;11.97;;;9.07;;
11616;SDS011;5864;52.998;9.068;2023-06-24T04:05:31;11.63;;;10.07;;
11616;SDS011;5864;52.998;9.068;2023-06-24T04:08:16;10.17;;;9.17;;
11616;SDS011;5864;52.998;9.068;2023-06-24T04:11:02;10.37;;;9.37;;
11616;SDS011;5864;52.998;9.068;2023-06-24T04:13:47;14.37;;;9.80;;
11616;SDS011;5864;52.998;9.068;2023-06-24T04:16:33;9.70;;;8.70;;
11616;SDS011;5864;52.998;9.068;2023-06-24T04:19:20;10.40;;;9.20;;
11616;SDS011;5864;52.998;9.068;2023-06-24T04:22:06;10.97;;;8.93;;
11616;SDS011;5864;52.998;9.068;2023-06-24T04:24:51;11.07;;;9.37;;
11616;SDS011;5864;52.998;9.068;2023-06-24T04:27:37;11.50;;;10.23;;
11616;SDS011;5864;52.998;9.068;2023-06-24T04:30:23;10.53;;;9.47;;
11616;SDS011;5864;52.998;9.068;2023-06-24T04:33:08;10.60;;;9.07;;
11616;SDS011;5864;52.998;9.068;2023-06-24T04:35:55;11.23;;;9.80;;
11616;SDS011;5864;52.998;9.068;2023-06-24T04:38:43;11.40;;;9.93;;
11616;SDS011;5864;52.998;9.068;2023-06-24T04:41:28;11.40;;;9.67;;
11616;SDS011;5864;52.998;9.068;2023-06-24T04:44:14;11.97;;;9.80;;
11616;SDS011;5864;52.998;9.068;2023-06-24T04:47:01;10.77;;;9.67;;
11616;SDS011;5864;52.998;9.068;2023-06-24T04:49:47;12.13;;;9.00;;
11616;SDS011;5864;52.998;9.068;2023-06-24T04:52:34;12.30;;;10.40;;
11616;SDS011;5864;52.998;9.068;2023-06-24T04:55:20;10.40;;;9.37;;
11616;SDS011;5864;52.998;9.068;2023-06-24T04:58:06;14.07;;;10.87;;
11616;SDS011;5864;52.998;9.068;2023-06-24T05:00:51;11.80;;;9.90;;
11616;SDS011;5864;52.998;9.068;2023-06-24T05:03:37;13.17;;;10.40;;
11616;SDS011;5864;52.998;9.068;2023-06-24T05:06:23;10.50;;;9.40;;
11616;SDS011;5864;52.998;9.068;2023-06-24T05:09:10;10.90;;;9.23;;
11616;SDS011;5864;52.998;9.068;2023-06-24T05:11:57;12.33;;;10.10;;
11616;SDS011;5864;52.998;9.068;2023-06-24T05:14:43;15.07;;;10.20;;
11616;SDS011;5864;52.998;9.068;2023-06-24T05:17:28;13.63;;;10.27;;
11616;SDS011;5864;52.998;9.068;2023-06-24T05:20:15;12.43;;;9.70;;
11616;SDS011;5864;52.998;9.068;2023-06-24T05:23:01;13.57;;;10.27;;
11616;SDS011;5864;52.998;9.068;2023-06-24T05:25:49;13.40;;;9.60;;
11616;SDS011;5864;52.998;9.068;2023-06-24T05:28:35;12.00;;;9.27;;
11616;SDS011;5864;52.998;9.068;2023-06-24T05:31:21;12.33;;;10.43;;
11616;SDS011;5864;52.998;9.068;2023-06-24T05:34:07;10.40;;;9.07;;
11616;SDS011;5864;52.998;9.068;2023-06-24T05:36:52;14.03;;;10.07;;
11616;SDS011;5864;52.998;9.068;2023-06-24T05:39:38;12.07;;;9.23;;
11616;SDS011;5864;52.998;9.068;2023-06-24T05:42:25;10.53;;;9.47;;
11616;SDS011;5864;52.998;9.068;2023-06-24T05:45:11;13.67;;;10.43;;
11616;SDS011;5864;52.998;9.068;2023-06-24T05:47:56;13.17;;;10.20;;
11616;SDS011;5864;52.998;9.068;2023-06-24T05:50:42;12.30;;;9.70;;
11616;SDS011;5864;52.998;9.068;2023-06-24T05:53:28;13.80;;;9.87;;
11616;SDS011;5864;52.998;9.068;2023-06-24T05:56:13;9.80;;;8.80;;
11616;SDS011;5864;52.998;9.068;2023-06-24T05:59:00;12.17;;;10.73;;
11616;SDS011;5864;52.998;9.068;2023-06-24T06:01:46;13.73;;;10.10;;
11616;SDS011;5864;52.998;9.068;2023-06-24T06:04:32;13.53;;;9.13;;
11616;SDS011;5864;52.998;9.068;2023-06-24T06:07:17;13.17;;;9.30;;
11616;SDS011;5864;52.998;9.068;2023-06-24T06:10:03;10.80;;;9.37;;
11616;SDS011;5864;52.998;9.068;2023-06-24T06:12:49;13.03;;;9.23;;
11616;SDS011;5864;52.998;9.068;2023-06-24T06:15:36;16.37;;;10.53;;
11616;SDS011;5864;52.998;9.068;2023-06-24T06:18:21;11.20;;;9.33;;
11616;SDS011;5864;52.998;9.068;2023-06-24T06:21:08;12.67;;;9.70;;
11616;SDS011;5864;52.998;9.068;2023-06-24T06:23:53;9.70;;;8.30;;
11616;SDS011;5864;52.998;9.068;2023-06-24T06:26:41;12.63;;;10.53;;
11616;SDS011;5864;52.998;9.068;2023-06-24T06:29:28;9.77;;;7.53;;
11616;SDS011;5864;52.998;9.068;2023-06-24T06:32:15;9.43;;;8.37;;
11616;SDS011;5864;52.998;9.068;2023-06-24T06:35:00;12.80;;;8.90;;
11616;SDS011;5864;52.998;9.068;2023-06-24T06:37:46;11.37;;;9.63;;
11616;SDS011;5864;52.998;9.068;2023-06-24T06:40:35;12.00;;;8.97;;
11616;SDS011;5864;52.998;9.068;2023-06-24T06:43:21;12.53;;;9.13;;
11616;SDS011;5864;52.998;9.068;2023-06-24T06:46:06;12.90;;;8.50;;
11616;SDS011;5864;52.998;9.068;2023-06-24T06:48:54;9.00;;;7.63;;
11616;SDS011;5864;52.998;9.068;2023-06-24T06:51:39;9.40;;;8.40;;
11616;SDS011;5864;52.998;9.068;2023-06-24T06:54:25;10.27;;;8.03;;
11616;SDS011;5864;52.998;9.068;2023-06-24T06:57:10;10.77;;;7.63;;
11616;SDS011;5864;52.998;9.068;2023-06-24T06:59:56;13.07;;;8.93;;
11616;SDS011;5864;52.998;9.068;2023-06-24T07:02:42;11.80;;;8.37;;
11616;SDS011;5864;52.998;9.068;2023-06-24T07:05:29;12.80;;;8.37;;
11616;SDS011;5864;52.998;9.068;2023-06-24T07:08:15;7.63;;;6.60;;
11616;SDS011;5864;52.998;9.068;2023-06-24T07:11:00;8.90;;;5.53;;
11616;SDS011;5864;52.998;9.068;2023-06-24T07:13:46;8.57;;;5.90;;
11616;SDS011;5864;52.998;9.068;2023-06-24T07:16:34;8.97;;;7.10;;
11616;SDS011;5864;52.998;9.068;2023-06-24T07:19:20;7.13;;;6.40;;
11616;SDS011;5864;52.998;9.068;2023-06-24T07:22:07;9.10;;;6.17;;
11616;SDS011;5864;52.998;9.068;2023-06-24T07:24:53;7.27;;;6.13;;
11616;SDS011;5864;52.998;9.068;2023-06-24T07:27:39;7.27;;;6.50;;
11616;SDS011;5864;52.998;9.068;2023-06-24T07:30:25;7.87;;;6.27;;
11616;SDS011;5864;52.998;9.068;2023-06-24T07:33:11;7.47;;;5.00;;
11616;SDS011;5864;52.998;9.068;2023-06-24T07:35:56;6.27;;;5.67;;
11616;SDS011;5864;52.998;9.068;2023-06-24T07:38:43;8.47;;;5.73;;
11616;SDS011;5864;52.998;9.068;2023-06-24T07:41:29;5.53;;;4.70;;
11616;SDS011;5864;52.998;9.068;2023-06-24T07:44:14;7.10;;;5.17;;
11616;SDS011;5864;52.998;9.068;2023-06-24T07:47:00;8.23;;;4.93;;
11616;SDS011;5864;52.998;9.068;2023-06-24T07:49:45;7.60;;;4.90;;
11616;SDS011;5864;52.998;9.068;2023-06-24T07:52:32;6.10;;;4.87;;
11616;SDS011;5864;52.998;9.068;2023-06-24T07:55:19;5.47;;;4.77;;
11616;SDS011;5864;52.998;9.068;2023-06-24T07:58:04;5.80;;;4.90;;
11616;SDS011;5864;52.998;9.068;2023-06-24T08:00:50;5.60;;;4.50;;
11616;SDS011;5864;52.998;9.068;2023-06-24T08:03:35;5.30;;;4.80;;
11616;SDS011;5864;52.998;9.068;2023-06-24T08:06:21;5.43;;;4.50;;
11616;SDS011;5864;52.998;9.068;2023-06-24T08:09:07;7.90;;;5.23;;
11616;SDS011;5864;52.998;9.068;2023-06-24T08:11:54;6.00;;;4.97;;
11616;SDS011;5864;52.998;9.068;2023-06-24T08:14:39;5.70;;;4.13;;
11616;SDS011;5864;52.998;9.068;2023-06-24T08:17:26;5.43;;;4.03;;
11616;SDS011;5864;52.998;9.068;2023-06-24T08:20:11;7.90;;;5.00;;
11616;SDS011;5864;52.998;9.068;2023-06-24T08:22:57;9.30;;;5.40;;
11616;SDS011;5864;52.998;9.068;2023-06-24T08:25:42;4.47;;;3.67;;
11616;SDS011;5864;52.998;9.068;2023-06-24T08:28:29;8.83;;;4.07;;
11616;SDS011;5864;52.998;9.068;2023-06-24T08:31:16;5.37;;;4.60;;
11616;SDS011;5864;52.998;9.068;2023-06-24T08:34:01;5.70;;;4.27;;
11616;SDS011;5864;52.998;9.068;2023-06-24T08:36:49;5.27;;;4.20;;
11616;SDS011;5864;52.998;9.068;2023-06-24T08:39:34;6.80;;;4.60;;
11616;SDS011;5864;52.998;9.068;2023-06-24T08:42:21;6.57;;;4.47;;
11616;SDS011;5864;52.998;9.068;2023-06-24T08:45:10;4.30;;;3.90;;
11616;SDS011;5864;52.998;9.068;2023-06-24T08:47:55;5.80;;;4.30;;
11616;SDS011;5864;52.998;9.068;2023-06-24T08:50:43;7.03;;;4.90;;
11616;SDS011;5864;52.998;9.068;2023-06-24T08:53:31;5.30;;;4.10;;
11616;SDS011;5864;52.998;9.068;2023-06-24T08:56:16;4.33;;;3.93;;
11616;SDS011;5864;52.998;9.068;2023-06-24T08:59:02;5.40;;;3.97;;
11616;SDS011;5864;52.998;9.068;2023-06-24T09:01:49;4.37;;;3.97;;
11616;SDS011;5864;52.998;9.068;2023-06-24T09:04:36;4.47;;;3.90;;
11616;SDS011;5864;52.998;9.068;2023-06-24T09:07:25;4.23;;;3.70;;
11616;SDS011;5864;52.998;9.068;2023-06-24T09:10:13;4.33;;;3.77;;
11616;SDS011;5864;52.998;9.068;2023-06-24T09:13:14;4.40;;;3.70;;
11616;SDS011;5864;52.998;9.068;2023-06-24T09:15:59;5.33;;;3.70;;
11616;SDS011;5864;52.998;9.068;2023-06-24T09:18:54;4.80;;;3.90;;
11616;SDS011;5864;52.998;9.068;2023-06-24T09:21:40;4.60;;;4.10;;
11616;SDS011;5864;52.998;9.068;2023-06-24T09:24:30;4.77;;;3.77;;
11616;SDS011;5864;52.998;9.068;2023-06-24T09:27:17;4.37;;;3.73;;
11616;SDS011;5864;52.998;9.068;2023-06-24T09:30:16;5.20;;;4.00;;
11616;SDS011;5864;52.998;9.068;2023-06-24T09:33:03;4.47;;;3.83;;
11616;SDS011;5864;52.998;9.068;2023-06-24T09:35:50;3.50;;;3.17;;
11616;SDS011;5864;52.998;9.068;2023-06-24T09:38:36;5.10;;;3.63;;
11616;SDS011;5864;52.998;9.068;2023-06-24T09:41:24;3.97;;;3.53;;
11616;SDS011;5864;52.998;9.068;2023-06-24T09:44:11;4.23;;;3.80;;
11616;SDS011;5864;52.998;9.068;2023-06-24T09:46:57;4.53;;;3.40;;
11616;SDS011;5864;52.998;9.068;2023-06-24T09:49:43;4.47;;;3.80;;
11616;SDS011;5864;52.998;9.068;2023-06-24T09:52:30;4.87;;;3.33;;
11616;SDS011;5864;52.998;9.068;2023-06-24T09:55:19;4.10;;;3.70;;
11616;SDS011;5864;52.998;9.068;2023-06-24T09:58:04;5.33;;;3.73;;
11616;SDS011;5864;52.998;9.068;2023-06-24T10:00:50;3.70;;;3.30;;
11616;SDS011;5864;52.998;9.068;2023-06-24T10:03:36;4.93;;;3.20;;
11616;SDS011;5864;52.998;9.068;2023-06-24T10:06:23;3.60;;;3.30;;
11616;SDS011;5864;52.998;9.068;2023-06-24T10:09:11;4.93;;;3.87;;
11616;SDS011;5864;52.998;9.068;2023-06-24T10:12:00;4.50;;;3.80;;
11616;SDS011;5864;52.998;9.068;2023-06-24T10:14:46;3.67;;;3.37;;
11616;SDS011;5864;52.998;9.068;2023-06-24T10:17:31;5.67;;;3.87;;
11616;SDS011;5864;52.998;9.068;2023-06-24T10:20:23;3.57;;;3.27;;
11616;SDS011;5864;52.998;9.068;2023-06-24T10:23:09;3.60;;;3.30;;
11616;SDS011;5864;52.998;9.068;2023-06-24T10:25:56;5.20;;;3.60;;
11616;SDS011;5864;52.998;9.068;2023-06-24T10:32:00;4.63;;;4.20;;
11616;SDS011;5864;52.998;9.068;2023-06-24T10:34:53;5.27;;;3.70;;
11616;SDS011;5864;52.998;9.068;2023-06-24T10:37:40;5.20;;;3.60;;
11616;SDS011;5864;52.998;9.068;2023-06-24T10:40:38;4.60;;;3.40;;
11616;SDS011;5864;52.998;9.068;2023-06-24T10:43:26;6.40;;;3.73;;
11616;SDS011;5864;52.998;9.068;2023-06-24T10:46:14;4.90;;;3.70;;
11616;SDS011;5864;52.998;9.068;2023-06-24T10:49:00;4.30;;;3.10;;
11616;SDS011;5864;52.998;9.068;2023-06-24T10:51:46;3.60;;;3.20;;
11616;SDS011;5864;52.998;9.068;2023-06-24T10:54:31;3.63;;;3.00;;
11616;SDS011;5864;52.998;9.068;2023-06-24T10:57:20;3.33;;;3.03;;
11616;SDS011;5864;52.998;9.068;2023-06-24T11:00:09;4.27;;;3.50;;
11616;SDS011;5864;52.998;9.068;2023-06-24T11:02:57;3.67;;;3.37;;
11616;SDS011;5864;52.998;9.068;2023-06-24T11:05:43;5.63;;;4.03;;
11616;SDS011;5864;52.998;9.068;2023-06-24T11:08:30;4.20;;;3.20;;
11616;SDS011;5864;52.998;9.068;2023-06-24T11:11:19;4.47;;;3.17;;
11616;SDS011;5864;52.998;9.068;2023-06-24T11:14:06;5.00;;;3.00;;
11616;SDS011;5864;52.998;9.068;2023-06-24T11:16:53;4.10;;;3.27;;
11616;SDS011;5864;52.998;9.068;2023-06-24T11:19:38;4.73;;;4.27;;
11616;SDS011;5864;52.998;9.068;2023-06-24T11:22:24;5.13;;;3.23;;
11616;SDS011;5864;52.998;9.068;2023-06-24T11:25:14;5.17;;;3.10;;
11616;SDS011;5864;52.998;9.068;2023-06-24T11:28:01;3.60;;;3.30;;
11616;SDS011;5864;52.998;9.068;2023-06-24T11:30:46;4.10;;;3.70;;
11616;SDS011;5864;52.998;9.068;2023-06-24T11:33:33;7.33;;;4.20;;
11616;SDS011;5864;52.998;9.068;2023-06-24T11:36:19;4.10;;;3.70;;
11616;SDS011;5864;52.998;9.068;2023-06-24T11:39:04;6.63;;;4.63;;
11616;SDS011;5864;52.998;9.068;2023-06-24T11:41:50;4.70;;;3.47;;
11616;SDS011;5864;52.998;9.068;2023-06-24T11:44:38;4.33;;;3.87;;
11616;SDS011;5864;52.998;9.068;2023-06-24T11:47:30;4.57;;;3.40;;
11616;SDS011;5864;52.998;9.068;2023-06-24T11:50:17;5.97;;;4.73;;
11616;SDS011;5864;52.998;9.068;2023-06-24T11:53:10;6.47;;;3.70;;
11616;SDS011;5864;52.998;9.068;2023-06-24T11:55:55;6.57;;;4.10;;
11616;SDS011;5864;52.998;9.068;2023-06-24T11:58:42;4.47;;;3.40;;
11616;SDS011;5864;52.998;9.068;2023-06-24T12:01:30;4.30;;;3.90;;
11616;SDS011;5864;52.998;9.068;2023-06-24T12:04:15;4.67;;;3.80;;
11616;SDS011;5864;52.998;9.068;2023-06-24T12:07:02;6.07;;;4.07;;
11616;SDS011;5864;52.998;9.068;2023-06-24T12:09:48;4.73;;;3.90;;
11616;SDS011;5864;52.998;9.068;2023-06-24T12:12:35;3.93;;;3.53;;
11616;SDS011;5864;52.998;9.068;2023-06-24T12:15:21;4.57;;;4.13;;
11616;SDS011;5864;52.998;9.068;2023-06-24T12:18:07;4.00;;;3.53;;
11616;SDS011;5864;52.998;9.068;2023-06-24T12:20:52;5.23;;;3.73;;
11616;SDS011;5864;52.998;9.068;2023-06-24T12:23:39;4.67;;;4.23;;
11616;SDS011;5864;52.998;9.068;2023-06-24T12:26:25;6.53;;;4.70;;
11616;SDS011;5864;52.998;9.068;2023-06-24T12:29:10;5.00;;;4.00;;
11616;SDS011;5864;52.998;9.068;2023-06-24T12:31:56;4.73;;;4.27;;
11616;SDS011;5864;52.998;9.068;2023-06-24T12:34:41;4.33;;;3.40;;
11616;SDS011;5864;52.998;9.068;2023-06-24T12:37:28;3.80;;;3.50;;
11616;SDS011;5864;52.998;9.068;2023-06-24T12:40:16;4.83;;;4.37;;
11616;SDS011;5864;52.998;9.068;2023-06-24T12:43:01;8.50;;;4.30;;
11616;SDS011;5864;52.998;9.068;2023-06-24T12:45:48;6.67;;;3.73;;
11616;SDS011;5864;52.998;9.068;2023-06-24T12:48:34;4.80;;;4.07;;
11616;SDS011;5864;52.998;9.068;2023-06-24T12:51:20;4.23;;;3.83;;
11616;SDS011;5864;52.998;9.068;2023-06-24T12:54:06;6.47;;;4.10;;
11616;SDS011;5864;52.998;9.068;2023-06-24T12:56:53;5.23;;;3.63;;
11616;SDS011;5864;52.998;9.068;2023-06-24T12:59:39;6.33;;;4.47;;
11616;SDS011;5864;52.998;9.068;2023-06-24T13:02:24;4.23;;;3.83;;
11616;SDS011;5864;52.998;9.068;2023-06-24T13:05:10;4.70;;;3.93;;
11616;SDS011;5864;52.998;9.068;2023-06-24T13:07:55;4.60;;;3.67;;
11616;SDS011;5864;52.998;9.068;2023-06-24T13:10:41;4.57;;;3.47;;
11616;SDS011;5864;52.998;9.068;2023-06-24T13:13:28;3.80;;;3.50;;
11616;SDS011;5864;52.998;9.068;2023-06-24T13:16:13;6.40;;;4.00;;
11616;SDS011;5864;52.998;9.068;2023-06-24T13:18:59;4.40;;;4.00;;
11616;SDS011;5864;52.998;9.068;2023-06-24T13:21:45;3.83;;;3.50;;
11616;SDS011;5864;52.998;9.068;2023-06-24T13:24:30;3.93;;;3.20;;
11616;SDS011;5864;52.998;9.068;2023-06-24T13:27:16;5.53;;;3.40;;
11616;SDS011;5864;52.998;9.068;2023-06-24T13:30:03;4.37;;;3.57;;
11616;SDS011;5864;52.998;9.068;2023-06-24T13:32:49;4.83;;;4.23;;
11616;SDS011;5864;52.998;9.068;2023-06-24T13:35:35;4.27;;;3.60;;
11616;SDS011;5864;52.998;9.068;2023-06-24T13:38:20;4.97;;;3.53;;
11616;SDS011;5864;52.998;9.068;2023-06-24T13:41:06;3.93;;;3.43;;
11616;SDS011;5864;52.998;9.068;2023-06-24T13:43:51;3.63;;;3.27;;
11616;SDS011;5864;52.998;9.068;2023-06-24T13:46:38;3.93;;;3.50;;
11616;SDS011;5864;52.998;9.068;2023-06-24T13:49:24;4.17;;;3.37;;
11616;SDS011;5864;52.998;9.068;2023-06-24T13:52:09;4.20;;;3.80;;
11616;SDS011;5864;52.998;9.068;2023-06-24T13:54:55;3.83;;;3.37;;
11616;SDS011;5864;52.998;9.068;2023-06-24T13:57:40;4.77;;;4.23;;
11616;SDS011;5864;52.998;9.068;2023-06-24T14:00:26;4.17;;;3.73;;
11616;SDS011;5864;52.998;9.068;2023-06-24T14:03:13;6.07;;;4.00;;
11616;SDS011;5864;52.998;9.068;2023-06-24T14:05:58;4.20;;;3.27;;
11616;SDS011;5864;52.998;9.068;2023-06-24T14:08:45;4.50;;;3.60;;
11616;SDS011;5864;52.998;9.068;2023-06-24T14:11:30;4.47;;;4.07;;
11616;SDS011;5864;52.998;9.068;2023-06-24T14:14:16;4.70;;;4.17;;
11616;SDS011;5864;52.998;9.068;2023-06-24T14:17:02;4.00;;;3.70;;
11616;SDS011;5864;52.998;9.068;2023-06-24T14:19:49;4.33;;;3.80;;
11616;SDS011;5864;52.998;9.068;2023-06-24T14:22:34;4.37;;;3.97;;
11616;SDS011;5864;52.998;9.068;2023-06-24T14:25:20;4.07;;;3.33;;
11616;SDS011;5864;52.998;9.068;2023-06-24T14:28:06;4.73;;;4.23;;
11616;SDS011;5864;52.998;9.068;2023-06-24T14:30:52;5.10;;;4.20;;
11616;SDS011;5864;52.998;9.068;2023-06-24T14:33:37;4.13;;;3.73;;
11616;SDS011;5864;52.998;9.068;2023-06-24T14:36:24;5.10;;;4.20;;
11616;SDS011;5864;52.998;9.068;2023-06-24T14:39:14;5.03;;;4.27;;
11616;SDS011;5864;52.998;9.068;2023-06-24T14:42:00;3.93;;;3.53;;
11616;SDS011;5864;52.998;9.068;2023-06-24T14:44:45;4.33;;;3.93;;
11616;SDS011;5864;52.998;9.068;2023-06-24T14:47:31;4.70;;;4.20;;
11616;SDS011;5864;52.998;9.068;2023-06-24T14:50:17;4.87;;;4.20;;
11616;SDS011;5864;52.998;9.068;2023-06-24T14:53:04;4.63;;;4.23;;
11616;SDS011;5864;52.998;9.068;2023-06-24T14:55:49;4.47;;;4.07;;
11616;SDS011;5864;52.998;9.068;2023-06-24T14:58:35;6.13;;;4.33;;
11616;SDS011;5864;52.998;9.068;2023-06-24T15:01:21;5.93;;;4.73;;
11616;SDS011;5864;52.998;9.068;2023-06-24T15:04:07;4.83;;;3.97;;
11616;SDS011;5864;52.998;9.068;2023-06-24T15:06:52;4.70;;;4.30;;
11616;SDS011;5864;52.998;9.068;2023-06-24T15:09:39;4.80;;;4.17;;
11616;SDS011;5864;52.998;9.068;2023-06-24T15:12:25;5.43;;;4.20;;
11616;SDS011;5864;52.998;9.068;2023-06-24T15:15:10;4.60;;;4.20;;
11616;SDS011;5864;52.998;9.068;2023-06-24T15:17:56;5.43;;;4.53;;
11616;SDS011;5864;52.998;9.068;2023-06-24T15:20:43;5.17;;;4.67;;
11616;SDS011;5864;52.998;9.068;2023-06-24T15:23:29;7.30;;;4.63;;
11616;SDS011;5864;52.998;9.068;2023-06-24T15:26:16;4.27;;;3.87;;
11616;SDS011;5864;52.998;9.068;2023-06-24T15:29:02;6.17;;;4.50;;
11616;SDS011;5864;52.998;9.068;2023-06-24T15:31:47;5.60;;;5.10;;
11616;SDS011;5864;52.998;9.068;2023-06-24T15:34:33;6.23;;;5.43;;
11616;SDS011;5864;52.998;9.068;2023-06-24T15:37:18;5.73;;;5.27;;
11616;SDS011;5864;52.998;9.068;2023-06-24T15:40:04;6.63;;;5.83;;
11616;SDS011;5864;52.998;9.068;2023-06-24T15:42:52;6.03;;;5.03;;
11616;SDS011;5864;52.998;9.068;2023-06-24T15:45:38;5.37;;;4.77;;
11616;SDS011;5864;52.998;9.068;2023-06-24T15:48:23;5.93;;;5.33;;
11616;SDS011;5864;52.998;9.068;2023-06-24T15:51:09;6.30;;;5.60;;
11616;SDS011;5864;52.998;9.068;2023-06-24T15:53:55;5.83;;;5.27;;
11616;SDS011;5864;52.998;9.068;2023-06-24T15:56:41;6.07;;;5.50;;
11616;SDS011;5864;52.998;9.068;2023-06-24T15:59:28;5.63;;;5.23;;
11616;SDS011;5864;52.998;9.068;2023-06-24T16:02:14;5.73;;;5.23;;
11616;SDS011;5864;52.998;9.068;2023-06-24T16:04:59;6.03;;;5.43;;
11616;SDS011;5864;52.998;9.068;2023-06-24T16:07:49;5.37;;;4.87;;
11616;SDS011;5864;52.998;9.068;2023-06-24T16:10:34;6.20;;;5.60;;
11616;SDS011;5864;52.998;9.068;2023-06-24T16:13:21;6.83;;;5.60;;
11616;SDS011;5864;52.998;9.068;2023-06-24T16:16:08;5.87;;;5.37;;
11616;SDS011;5864;52.998;9.068;2023-06-24T16:18:54;6.27;;;5.77;;
11616;SDS011;5864;52.998;9.068;2023-06-24T16:21:40;6.07;;;5.47;;
11616;SDS011;5864;52.998;9.068;2023-06-24T16:24:25;5.63;;;5.13;;
11616;SDS011;5864;52.998;9.068;2023-06-24T16:27:11;6.87;;;6.17;;
11616;SDS011;5864;52.998;9.068;2023-06-24T16:29:57;6.00;;;5.50;;
11616;SDS011;5864;52.998;9.068;2023-06-24T16:32:44;6.27;;;5.67;;
11616;SDS011;5864;52.998;9.068;2023-06-24T16:35:30;6.23;;;5.63;;
11616;SDS011;5864;52.998;9.068;2023-06-24T16:38:16;6.20;;;5.70;;
11616;SDS011;5864;52.998;9.068;2023-06-24T16:41:01;5.83;;;5.33;;
11616;SDS011;5864;52.998;9.068;2023-06-24T16:43:47;6.27;;;5.73;;
11616;SDS011;5864;52.998;9.068;2023-06-24T16:46:33;5.57;;;5.17;;
11616;SDS011;5864;52.998;9.068;2023-06-24T16:49:20;6.20;;;5.60;;
11616;SDS011;5864;52.998;9.068;2023-06-24T16:52:05;6.50;;;5.90;;
11616;SDS011;5864;52.998;9.068;2023-06-24T16:54:51;6.93;;;6.33;;
11616;SDS011;5864;52.998;9.068;2023-06-24T16:57:36;6.80;;;6.20;;
11616;SDS011;5864;52.998;9.068;2023-06-24T17:00:22;6.60;;;6.00;;
11616;SDS011;5864;52.998;9.068;2023-06-24T17:03:08;6.43;;;5.83;;